Time;durP1;ratioP1;P1;durP2;ratioP2;P2;SDS_P1;SDS_P2;PMS_P1;PMS_P2;Temp;Humidity;BMP_temperature;BMP_pressure;BME280_temperature;BME280_humidity;BME280_pressure;Samples;Min_cycle;Max_cycle;Signal;HPM_P1;HPM_P2
2021/07/13 00:00:30;;;;;;;10.65;8.40;;;;;;;;;;4920195;29;20467;-94
2021/07/13 00:02:56;;;;;;;11.55;9.15;;;;;;;;;;4920567;29;20087;-94
2021/07/13 00:05:23;;;;;;;11.00;9.13;;;;;;;;;;4920520;29;20054;-94
2021/07/13 00:07:50;;;;;;;11.52;8.60;;;;;;;;;;4920752;29;20027;-95
2021/07/13 00:10:19;;;;;;;11.75;9.48;;;;;;;;;;4920365;29;20032;-93
2021/07/13 00:12:46;;;;;;;13.10;9.68;;;;;;;;;;4920628;29;20027;-93
2021/07/13 00:15:24;;;;;;;12.25;9.05;;;;;;;;;;4920248;29;20028;-93
2021/07/13 00:17:54;;;;;;;12.20;9.55;;;;;;;;;;4920574;29;20028;-94
2021/07/13 00:20:20;;;;;;;12.23;9.13;;;;;;;;;;4920691;29;20024;-94
2021/07/13 00:22:46;;;;;;;10.13;7.50;;;;;;;;;;4922970;29;20032;-94
2021/07/13 00:25:13;;;;;;;10.13;7.65;;;;;;;;;;4925137;29;20082;-94
2021/07/13 00:27:41;;;;;;;10.32;7.57;;;;;;;;;;4929387;29;20028;-93
2021/07/13 00:30:09;;;;;;;11.75;7.95;;;;;;;;;;4932091;28;20051;-93
2021/07/13 00:32:34;;;;;;;10.52;7.45;;;;;;;;;;4945998;29;20031;-95
2021/07/13 00:35:01;;;;;;;11.85;8.35;;;;;;;;;;4923726;29;20544;-94
2021/07/13 00:37:26;;;;;;;12.93;9.75;;;;;;;;;;4924145;29;20087;-93
2021/07/13 00:39:52;;;;;;;11.32;9.25;;;;;;;;;;4923525;29;20031;-94
2021/07/13 00:42:18;;;;;;;11.73;10.20;;;;;;;;;;4923553;29;20035;-93
2021/07/13 00:44:46;;;;;;;11.02;8.52;;;;;;;;;;4923834;29;20023;-94
2021/07/13 00:47:13;;;;;;;11.73;8.80;;;;;;;;;;4923636;29;20063;-93
2021/07/13 00:49:39;;;;;;;10.70;8.15;;;;;;;;;;4923446;29;20034;-93
2021/07/13 00:52:08;;;;;;;12.07;9.07;;;;;;;;;;4923442;29;20119;-93
2021/07/13 00:54:37;;;;;;;9.52;6.97;;;;;;;;;;4923382;29;20047;-93
2021/07/13 00:57:07;;;;;;;12.25;9.50;;;;;;;;;;4923012;29;20047;-92
2021/07/13 00:59:34;;;;;;;11.38;8.40;;;;;;;;;;4939225;29;20095;-93
2021/07/13 01:02:00;;;;;;;11.80;7.90;;;;;;;;;;4923106;29;20091;-94
2021/07/13 01:04:26;;;;;;;11.63;10.35;;;;;;;;;;4922944;29;20171;-93
2021/07/13 01:06:58;;;;;;;11.32;8.02;;;;;;;;;;4923456;29;20054;-93
2021/07/13 01:09:59;;;;;;;10.27;8.13;;;;;;;;;;4923100;29;20028;-93
2021/07/13 01:12:43;;;;;;;9.73;5.68;;;;;;;;;;4920291;29;20400;-94
2021/07/13 01:15:09;;;;;;;12.57;9.90;;;;;;;;;;4923252;29;20051;-94
2021/07/13 01:17:41;;;;;;;10.85;8.35;;;;;;;;;;4923282;29;20451;-93
2021/07/13 01:20:42;;;;;;;9.70;7.05;;;;;;;;;;4923269;29;20039;-94
2021/07/13 01:23:29;;;;;;;9.45;6.90;;;;;;;;;;4923459;29;20357;-93
2021/07/13 01:26:03;;;;;;;9.05;7.63;;;;;;;;;;4922818;29;20027;-93
2021/07/13 01:28:35;;;;;;;10.15;8.07;;;;;;;;;;4922833;29;20039;-94
2021/07/13 01:31:03;;;;;;;10.48;8.02;;;;;;;;;;4922688;29;20028;-94
2021/07/13 01:33:31;;;;;;;10.50;7.47;;;;;;;;;;4922443;29;20031;-93
2021/07/13 01:36:05;;;;;;;10.93;7.13;;;;;;;;;;4922650;29;20024;-92
2021/07/13 01:38:37;;;;;;;11.15;8.65;;;;;;;;;;4922858;29;20094;-95
2021/07/13 01:41:10;;;;;;;13.10;9.15;;;;;;;;;;4922262;29;20050;-93
2021/07/13 01:43:41;;;;;;;9.63;8.43;;;;;;;;;;4922407;29;20047;-93
2021/07/13 01:46:07;;;;;;;11.10;8.15;;;;;;;;;;4922222;29;20027;-94
2021/07/13 01:48:35;;;;;;;9.20;6.95;;;;;;;;;;4922372;29;20067;-94
2021/07/13 01:51:02;;;;;;;9.13;7.47;;;;;;;;;;4922339;29;20035;-94
2021/07/13 01:53:29;;;;;;;10.10;8.55;;;;;;;;;;4922472;29;20039;-93
2021/07/13 01:55:57;;;;;;;9.73;8.25;;;;;;;;;;4922211;29;20051;-93
2021/07/13 01:58:25;;;;;;;11.52;8.20;;;;;;;;;;4922326;29;20118;-95
2021/07/13 02:00:58;;;;;;;12.02;6.22;;;;;;;;;;4922234;29;20107;-93
2021/07/13 02:03:26;;;;;;;11.35;8.13;;;;;;;;;;4922182;29;20460;-93
2021/07/13 02:05:56;;;;;;;9.18;7.72;;;;;;;;;;4922372;29;20038;-93
2021/07/13 02:08:22;;;;;;;;;;;;;;;;;;4922969;29;20566;-92
2021/07/13 02:10:49;;;;;;;9.60;8.30;;;;;;;;;;4933608;29;19946;-94
2021/07/13 02:13:18;;;;;;;10.80;7.30;;;;;;;;;;4946202;28;20071;-94
2021/07/13 02:15:44;;;;;;;12.20;9.43;;;;;;;;;;4946250;28;20027;-93
2021/07/13 02:18:10;;;;;;;10.80;5.03;;;;;;;;;;4925494;29;20410;-91
2021/07/13 02:20:37;;;;;;;10.00;8.15;;;;;;;;;;4922562;29;20095;-93
2021/07/13 02:23:03;;;;;;;9.30;6.53;;;;;;;;;;4922558;29;20031;-94
2021/07/13 02:25:29;;;;;;;8.88;6.05;;;;;;;;;;4922174;29;20086;-93
2021/07/13 02:28:05;;;;;;;10.48;8.30;;;;;;;;;;4922200;29;20028;-93
2021/07/13 02:30:36;;;;;;;9.10;8.13;;;;;;;;;;4921781;29;20027;-92
2021/07/13 02:33:25;;;;;;;12.50;8.35;;;;;;;;;;4921805;29;20042;-93
2021/07/13 02:35:55;;;;;;;9.23;8.10;;;;;;;;;;4916513;29;20019;-93
2021/07/13 02:38:22;;;;;;;11.48;7.43;;;;;;;;;;4921730;29;20050;-94
2021/07/13 02:40:49;;;;;;;10.10;8.52;;;;;;;;;;4921330;29;20027;-92
2021/07/13 02:43:16;;;;;;;14.40;7.80;;;;;;;;;;4921399;29;20059;-92
2021/07/13 02:45:42;;;;;;;9.10;6.97;;;;;;;;;;4921005;29;20038;-94
2021/07/13 02:48:11;;;;;;;8.63;7.03;;;;;;;;;;4921185;29;20024;-92
2021/07/13 02:50:37;;;;;;;10.60;7.20;;;;;;;;;;4921453;29;20082;-93
2021/07/13 02:53:04;;;;;;;13.35;9.13;;;;;;;;;;4921092;29;20156;-94
2021/07/13 02:55:32;;;;;;;10.63;6.85;;;;;;;;;;4915001;29;20075;-91
2021/07/13 02:58:00;;;;;;;12.02;8.88;;;;;;;;;;4902128;29;20028;-92
2021/07/13 03:00:27;;;;;;;8.70;7.45;;;;;;;;;;4899449;29;20063;-93
2021/07/13 03:02:54;;;;;;;9.60;8.55;;;;;;;;;;4883608;29;20028;-93
2021/07/13 03:05:23;;;;;;;10.02;7.75;;;;;;;;;;4898690;29;20028;-93
2021/07/13 03:07:51;;;;;;;12.15;7.82;;;;;;;;;;4883142;29;20088;-93
2021/07/13 03:10:23;;;;;;;7.75;7.03;;;;;;;;;;4883207;29;20032;-92
2021/07/13 03:12:50;;;;;;;9.05;4.90;;;;;;;;;;4883476;29;20449;-92
2021/07/13 03:15:19;;;;;;;9.55;8.10;;;;;;;;;;4883409;29;20028;-93
2021/07/13 03:17:46;;;;;;;11.82;6.93;;;;;;;;;;4898646;29;20083;-94
2021/07/13 03:20:12;;;;;;;8.65;7.40;;;;;;;;;;4883206;29;20032;-94
2021/07/13 03:22:44;;;;;;;8.98;4.95;;;;;;;;;;4882929;29;20513;-93
2021/07/13 03:25:15;;;;;;;10.43;8.13;;;;;;;;;;4899219;29;20036;-93
2021/07/13 03:27:42;;;;;;;10.68;7.60;;;;;;;;;;4882554;29;20036;-93
2021/07/13 03:30:09;;;;;;;10.63;7.88;;;;;;;;;;4898413;29;20025;-94
2021/07/13 03:32:35;;;;;;;9.48;7.10;;;;;;;;;;4883210;29;20071;-94
2021/07/13 03:35:04;;;;;;;9.68;7.00;;;;;;;;;;4883845;29;20032;-93
2021/07/13 03:37:32;;;;;;;11.15;6.97;;;;;;;;;;4899222;29;20064;-93
2021/07/13 03:39:58;;;;;;;8.95;6.60;;;;;;;;;;4899040;29;20029;-86
2021/07/13 03:42:24;;;;;;;10.32;8.23;;;;;;;;;;4899658;29;20032;-86
2021/07/13 03:44:50;;;;;;;10.20;6.60;;;;;;;;;;4902696;29;20031;-92
2021/07/13 03:47:17;;;;;;;12.55;8.45;;;;;;;;;;4914061;29;20036;-85
2021/07/13 04:02:41;;;;;;;9.98;5.35;;;;;;;;;;5152587;27;20404;-87
2021/07/13 04:05:08;;;;;;;8.75;5.57;;;;;;;;;;5133861;27;20035;-88
2021/07/13 04:07:34;;;;;;;9.63;4.95;;;;;;;;;;5134246;27;20023;-88
2021/07/13 04:10:00;;;;;;;9.25;7.05;;;;;;;;;;5133673;27;20465;-89
2021/07/13 04:15:28;;;;;;;7.20;4.97;;;;;;;;;;5152505;27;20027;-87
2021/07/13 04:18:02;;;;;;;9.00;4.80;;;;;;;;;;5133689;27;20511;-86
2021/07/13 04:20:27;;;;;;;9.40;5.80;;;;;;;;;;5133631;27;20030;-88
2021/07/13 04:22:53;;;;;;;10.60;5.60;;;;;;;;;;5152012;27;20015;-84
2021/07/13 04:25:18;;;;;;;7.40;4.68;;;;;;;;;;5133610;27;20027;-84
2021/07/13 04:27:44;;;;;;;9.02;5.35;;;;;;;;;;5125365;27;20019;-86
2021/07/13 04:30:10;;;;;;;9.43;4.97;;;;;;;;;;5135492;27;20026;-82
2021/07/13 04:34:36;;;;;;;11.20;8.00;;;;;;;;;;5096241;27;1635951;-82
2021/07/13 04:37:02;;;;;;;10.10;8.20;;;;;;;;;;5129598;28;20037;-87
2021/07/13 04:39:28;;;;;;;10.43;8.45;;;;;;;;;;5133673;27;20026;-82
2021/07/13 04:41:54;;;;;;;9.55;8.20;;;;;;;;;;5132523;28;20475;-83
2021/07/13 04:44:20;;;;;;;10.85;6.57;;;;;;;;;;5131977;28;20555;-83
2021/07/13 04:46:46;;;;;;;10.57;7.70;;;;;;;;;;5131619;27;20084;-82
2021/07/13 04:49:12;;;;;;;8.95;6.88;;;;;;;;;;5131455;28;20023;-82
2021/07/13 04:51:38;;;;;;;11.98;8.60;;;;;;;;;;5131645;28;20031;-82
2021/07/13 04:54:04;;;;;;;9.77;8.10;;;;;;;;;;5131110;27;20533;-83
2021/07/13 04:56:30;;;;;;;7.60;4.80;;;;;;;;;;5130462;28;20413;-82
2021/07/13 04:58:56;;;;;;;9.75;8.00;;;;;;;;;;5132730;27;20023;-83
2021/07/13 05:01:22;;;;;;;8.45;4.93;;;;;;;;;;5132526;27;20424;-83
2021/07/13 05:05:50;;;;;;;17.58;4.95;;;;;;;;;;5099463;27;1624565;-85
2021/07/13 05:08:16;;;;;;;8.52;5.25;;;;;;;;;;5133110;27;20108;-84
2021/07/13 05:10:41;;;;;;;8.25;4.97;;;;;;;;;;5131585;28;20100;-87
2021/07/13 05:13:11;;;;;;;12.02;5.10;;;;;;;;;;5132670;27;20027;-88
2021/07/13 05:15:39;;;;;;;9.05;4.85;;;;;;;;;;5132276;28;20024;-85
2021/07/13 05:18:07;;;;;;;9.35;5.07;;;;;;;;;;5132450;27;20027;-84
2021/07/13 05:20:33;;;;;;;8.68;5.53;;;;;;;;;;5131445;28;20024;-87
2021/07/13 05:23:06;;;;;;;10.75;5.15;;;;;;;;;;5131041;28;20024;-84
2021/07/13 05:25:32;;;;;;;8.98;5.38;;;;;;;;;;5131620;28;20031;-85
2021/07/13 05:27:58;;;;;;;6.50;4.40;;;;;;;;;;5132335;27;20016;-85
2021/07/13 05:30:24;;;;;;;8.90;4.75;;;;;;;;;;5132611;27;20110;-84
2021/07/13 05:32:53;;;;;;;8.43;4.70;;;;;;;;;;5133251;28;20043;-85
2021/07/13 05:35:20;;;;;;;7.88;6.47;;;;;;;;;;5134171;27;20403;-85
2021/07/13 05:37:46;;;;;;;9.63;7.72;;;;;;;;;;5133286;27;20092;-85
2021/07/13 05:40:12;;;;;;;11.07;8.20;;;;;;;;;;5133054;27;20024;-85
2021/07/13 05:42:38;;;;;;;9.60;8.50;;;;;;;;;;5131475;28;20024;-86
2021/07/13 05:45:05;;;;;;;8.43;7.43;;;;;;;;;;5130665;28;20084;-86
2021/07/13 05:47:31;;;;;;;11.23;8.25;;;;;;;;;;5132299;27;20047;-86
2021/07/13 05:49:57;;;;;;;8.07;4.70;;;;;;;;;;5131811;27;20054;-84
2021/07/13 05:52:22;;;;;;;9.88;5.13;;;;;;;;;;5131828;28;20030;-85
2021/07/13 05:54:48;;;;;;;9.90;7.32;;;;;;;;;;5131922;27;20027;-84
2021/07/13 05:57:14;;;;;;;9.70;8.23;;;;;;;;;;5131662;27;20023;-84
2021/07/13 05:59:40;;;;;;;9.30;6.97;;;;;;;;;;5131424;27;20027;-84
2021/07/13 06:02:07;;;;;;;10.10;8.75;;;;;;;;;;5131646;27;20023;-84
2021/07/13 06:04:33;;;;;;;9.68;8.68;;;;;;;;;;5131262;27;20085;-84
2021/07/13 06:06:59;;;;;;;9.68;8.68;;;;;;;;;;5130155;28;20024;-84
2021/07/13 06:09:29;;;;;;;9.73;8.43;;;;;;;;;;5131499;27;20015;-84
2021/07/13 06:11:55;;;;;;;8.07;4.50;;;;;;;;;;5130449;28;20033;-85
2021/07/13 06:14:21;;;;;;;9.23;8.32;;;;;;;;;;5124003;27;20501;-85
2021/07/13 06:16:48;;;;;;;10.30;8.27;;;;;;;;;;5118810;27;20024;-86
2021/07/13 06:19:14;;;;;;;8.85;7.50;;;;;;;;;;5114671;27;20031;-89
2021/07/13 06:21:40;;;;;;;9.43;7.90;;;;;;;;;;5100739;28;20016;-89
2021/07/13 06:24:05;;;;;;;8.98;7.57;;;;;;;;;;5098449;28;20044;-88
2021/07/13 06:26:31;;;;;;;8.32;6.95;;;;;;;;;;5096870;28;20035;-87
2021/07/13 06:28:57;;;;;;;10.68;7.97;;;;;;;;;;5095874;28;20023;-88
2021/07/13 06:31:23;;;;;;;8.82;5.30;;;;;;;;;;5097207;28;20026;-88
2021/07/13 06:33:49;;;;;;;8.15;4.68;;;;;;;;;;5097126;28;20028;-87
2021/07/13 06:36:18;;;;;;;10.68;4.85;;;;;;;;;;5096605;28;20085;-87
2021/07/13 06:38:43;;;;;;;8.25;4.35;;;;;;;;;;5096515;28;20360;-90
2021/07/13 06:41:12;;;;;;;15.70;11.38;;;;;;;;;;5097634;28;20107;-93
2021/07/13 06:43:38;;;;;;;17.00;11.35;;;;;;;;;;5096949;28;20058;-85
2021/07/13 06:46:03;;;;;;;22.60;9.88;;;;;;;;;;5099232;28;20198;-84
2021/07/13 06:48:29;;;;;;;24.02;13.27;;;;;;;;;;5120154;27;20101;-89
2021/07/13 06:50:55;;;;;;;16.25;11.05;;;;;;;;;;5117460;28;20092;-90
2021/07/13 06:53:21;;;;;;;11.18;5.80;;;;;;;;;;5117248;27;20534;-87
2021/07/13 06:55:47;;;;;;;12.63;6.68;;;;;;;;;;5115246;28;20036;-88
2021/07/13 06:58:13;;;;;;;9.55;5.15;;;;;;;;;;5115220;28;20042;-86
2021/07/13 07:00:39;;;;;;;12.75;7.82;;;;;;;;;;5118855;27;20020;-86
2021/07/13 07:03:05;;;;;;;10.00;5.13;;;;;;;;;;5116083;27;20031;-87
2021/07/13 07:05:31;;;;;;;9.73;7.95;;;;;;;;;;5115057;28;20478;-88
2021/07/13 07:07:57;;;;;;;8.82;6.68;;;;;;;;;;5112298;28;20474;-86
2021/07/13 07:10:23;;;;;;;8.73;4.60;;;;;;;;;;5095674;28;20028;-85
2021/07/13 07:12:53;;;;;;;10.35;6.07;;;;;;;;;;5116093;28;20058;-85
2021/07/13 07:15:19;;;;;;;11.65;5.32;;;;;;;;;;5113418;28;20531;-88
2021/07/13 07:17:49;;;;;;;10.25;8.05;;;;;;;;;;5104272;27;20125;-88
2021/07/13 07:20:17;;;;;;;9.00;6.85;;;;;;;;;;5135257;27;20034;-91
2021/07/13 07:22:43;;;;;;;9.73;5.05;;;;;;;;;;5123579;27;20528;-87
2021/07/13 07:25:10;;;;;;;8.90;6.35;;;;;;;;;;5100334;28;20440;-89
2021/07/13 07:27:36;;;;;;;8.98;5.30;;;;;;;;;;5116175;27;20387;-88
2021/07/13 07:30:06;;;;;;;8.63;5.32;;;;;;;;;;5136492;27;20058;-88
2021/07/13 07:32:33;;;;;;;9.50;5.22;;;;;;;;;;5136687;27;20087;-85
2021/07/13 07:34:59;;;;;;;7.85;4.28;;;;;;;;;;5136195;27;20027;-87
2021/07/13 07:37:25;;;;;;;7.72;5.28;;;;;;;;;;5136738;27;20024;-90
2021/07/13 07:39:51;;;;;;;9.73;8.27;;;;;;;;;;5136760;27;20019;-90
2021/07/13 07:42:16;;;;;;;7.57;4.97;;;;;;;;;;5136001;27;20019;-88
2021/07/13 07:44:42;;;;;;;7.95;4.45;;;;;;;;;;5136013;27;20384;-86
2021/07/13 07:47:08;;;;;;;8.80;4.30;;;;;;;;;;5136106;27;20028;-92
2021/07/13 07:49:39;;;;;;;6.97;4.32;;;;;;;;;;5136190;27;20045;-86
2021/07/13 07:52:14;;;;;;;6.97;4.05;;;;;;;;;;5134503;27;20473;-90
2021/07/13 07:54:40;;;;;;;8.00;4.22;;;;;;;;;;5136103;27;20015;-88
2021/07/13 07:57:06;;;;;;;6.35;3.42;;;;;;;;;;5135303;27;20500;-84
2021/07/13 07:59:32;;;;;;;9.13;4.25;;;;;;;;;;5136534;27;20033;-86
2021/07/13 08:02:01;;;;;;;13.40;6.40;;;;;;;;;;5131028;27;20023;-86
2021/07/13 08:04:33;;;;;;;6.85;6.00;;;;;;;;;;5138764;27;20054;-86
2021/07/13 08:06:59;;;;;;;5.80;3.17;;;;;;;;;;5122357;27;20039;-86
2021/07/13 08:09:25;;;;;;;6.82;4.00;;;;;;;;;;5141011;27;20042;-84
2021/07/13 08:11:54;;;;;;;6.60;4.50;;;;;;;;;;5140214;27;20025;-85
2021/07/13 08:14:20;;;;;;;17.77;5.60;;;;;;;;;;5139978;27;20049;-86
2021/07/13 08:16:48;;;;;;;9.65;4.05;;;;;;;;;;5136539;27;20027;-86
2021/07/13 08:19:13;;;;;;;6.65;5.55;;;;;;;;;;5133968;27;20382;-87
2021/07/13 08:21:39;;;;;;;6.32;3.88;;;;;;;;;;5135267;27;20027;-85
2021/07/13 08:24:05;;;;;;;8.00;3.22;;;;;;;;;;5134980;27;20346;-86
2021/07/13 08:26:38;;;;;;;5.97;4.20;;;;;;;;;;5136303;27;20083;-93
2021/07/13 08:29:04;;;;;;;7.00;3.63;;;;;;;;;;5137214;27;20043;-84
2021/07/13 08:31:30;;;;;;;9.40;5.72;;;;;;;;;;5144173;27;20028;-85
2021/07/13 08:33:55;;;;;;;8.57;4.07;;;;;;;;;;5143320;27;20050;-85
2021/07/13 08:36:21;;;;;;;11.50;4.45;;;;;;;;;;5136969;27;20030;-84
2021/07/13 08:38:47;;;;;;;5.38;3.63;;;;;;;;;;5136820;27;20030;-82
2021/07/13 08:41:12;;;;;;;9.45;6.80;;;;;;;;;;5137798;27;20489;-86
2021/07/13 08:43:38;;;;;;;8.05;5.95;;;;;;;;;;5135582;27;20019;-86
2021/07/13 08:46:04;;;;;;;8.38;6.15;;;;;;;;;;5134951;27;20030;-86
2021/07/13 08:48:32;;;;;;;5.45;3.25;;;;;;;;;;5136674;27;20015;-89
2021/07/13 08:51:07;;;;;;;7.35;4.18;;;;;;;;;;5138070;27;20027;-88
2021/07/13 08:53:33;;;;;;;7.70;6.25;;;;;;;;;;5138163;27;20106;-87
2021/07/13 08:56:00;;;;;;;13.35;6.45;;;;;;;;;;5135562;27;20023;-87
2021/07/13 08:58:26;;;;;;;7.45;6.35;;;;;;;;;;5134684;27;20040;-88
2021/07/13 09:00:52;;;;;;;6.40;4.15;;;;;;;;;;5138734;27;20053;-86
2021/07/13 09:03:21;;;;;;;7.75;3.80;;;;;;;;;;5134232;27;20019;-87
2021/07/13 09:06:04;;;;;;;7.45;4.45;;;;;;;;;;5130589;28;20040;-87
2021/07/13 09:08:32;;;;;;;12.15;7.32;;;;;;;;;;5135458;27;20031;-86
2021/07/13 09:11:13;;;;;;;8.02;4.45;;;;;;;;;;5136542;27;20058;-85
2021/07/13 09:13:46;;;;;;;9.18;4.85;;;;;;;;;;5138350;27;20068;-86
2021/07/13 09:16:19;;;;;;;8.70;6.55;;;;;;;;;;5135645;27;20028;-87
2021/07/13 09:18:54;;;;;;;7.85;6.10;;;;;;;;;;5133611;28;20024;-87
2021/07/13 09:21:32;;;;;;;7.93;4.45;;;;;;;;;;5134067;28;20027;-87
2021/07/13 09:24:20;;;;;;;7.47;4.80;;;;;;;;;;5134972;27;20030;-87
2021/07/13 09:26:52;;;;;;;12.23;4.82;;;;;;;;;;5135349;27;20031;-86
2021/07/13 09:29:34;;;;;;;8.80;7.53;;;;;;;;;;5134913;27;20102;-86
2021/07/13 09:32:31;;;;;;;8.07;4.15;;;;;;;;;;5135335;27;20022;-85
2021/07/13 09:35:03;;;;;;;7.78;4.40;;;;;;;;;;5133727;28;20019;-87
2021/07/13 09:37:33;;;;;;;9.30;4.43;;;;;;;;;;5143417;27;20026;-87
2021/07/13 09:40:28;;;;;;;6.20;4.18;;;;;;;;;;5135658;28;20527;-90
2021/07/13 09:42:55;;;;;;;12.40;4.80;;;;;;;;;;5136261;28;20375;-89
2021/07/13 09:45:32;;;;;;;11.82;7.53;;;;;;;;;;5138366;27;20088;-88
2021/07/13 09:48:09;;;;;;;8.52;6.78;;;;;;;;;;5142329;28;20043;-89
2021/07/13 09:50:41;;;;;;;6.32;3.72;;;;;;;;;;5135745;27;20024;-89
2021/07/13 09:53:09;;;;;;;9.10;6.47;;;;;;;;;;5137904;27;20482;-89
2021/07/13 09:55:35;;;;;;;8.30;7.30;;;;;;;;;;5137715;27;20030;-89
2021/07/13 09:58:15;;;;;;;7.90;4.45;;;;;;;;;;5137470;27;20034;-88
2021/07/13 10:00:42;;;;;;;8.73;7.10;;;;;;;;;;5140114;27;20019;-90
2021/07/13 10:03:22;;;;;;;7.03;4.03;;;;;;;;;;5133479;27;20458;-88
2021/07/13 10:05:51;;;;;;;8.65;7.03;;;;;;;;;;5137551;27;20402;-88
2021/07/13 10:08:18;;;;;;;8.27;7.00;;;;;;;;;;5138502;27;20029;-89
2021/07/13 10:10:46;;;;;;;8.30;7.30;;;;;;;;;;5138098;27;20019;-90
2021/07/13 10:13:14;;;;;;;8.38;6.40;;;;;;;;;;5137597;27;20023;-87
2021/07/13 10:15:44;;;;;;;9.90;8.00;;;;;;;;;;5124497;27;20047;-89
2021/07/13 10:18:12;;;;;;;8.15;6.40;;;;;;;;;;5125988;27;20023;-88
2021/07/13 10:20:39;;;;;;;7.60;6.50;;;;;;;;;;5126478;27;20046;-87
2021/07/13 10:23:10;;;;;;;8.48;6.70;;;;;;;;;;5118442;27;20036;-86
2021/07/13 10:25:44;;;;;;;10.15;7.28;;;;;;;;;;5122903;27;20027;-88
2021/07/13 10:28:14;;;;;;;7.28;6.22;;;;;;;;;;5116518;28;20112;-89
2021/07/13 10:30:45;;;;;;;9.80;6.45;;;;;;;;;;5117577;28;20088;-87
2021/07/13 10:33:37;;;;;;;8.25;6.30;;;;;;;;;;5116238;28;20076;-87
2021/07/13 10:36:40;;;;;;;7.88;5.43;;;;;;;;;;5117086;28;20134;-88
2021/07/13 10:39:34;;;;;;;8.43;6.80;;;;;;;;;;5121044;27;20024;-88
2021/07/13 10:42:01;;;;;;;7.90;6.75;;;;;;;;;;5106209;27;20073;-87
2021/07/13 10:44:47;;;;;;;8.18;6.93;;;;;;;;;;5120652;27;20019;-89
2021/07/13 10:47:57;;;;;;;11.35;5.05;;;;;;;;;;5113613;27;20383;-90
2021/07/13 10:50:23;;;;;;;7.97;5.35;;;;;;;;;;5101478;27;20032;-91
2021/07/13 10:53:26;;;;;;;7.35;4.18;;;;;;;;;;5111707;27;20407;-90
2021/07/13 10:56:13;;;;;;;7.78;4.18;;;;;;;;;;5120927;27;20388;-89
2021/07/13 10:58:41;;;;;;;6.97;3.60;;;;;;;;;;5098509;28;20024;-88
2021/07/13 11:01:14;;;;;;;9.25;6.50;;;;;;;;;;5098464;28;20047;-88
2021/07/13 11:03:47;;;;;;;10.77;7.55;;;;;;;;;;5101802;28;20081;-91
2021/07/13 11:06:16;;;;;;;9.30;6.47;;;;;;;;;;5099383;28;20044;-89
2021/07/13 11:09:01;;;;;;;11.27;7.65;;;;;;;;;;5093094;28;20039;-88
2021/07/13 11:11:30;;;;;;;7.43;6.22;;;;;;;;;;5097644;28;20020;-87
2021/07/13 11:14:05;;;;;;;9.10;7.15;;;;;;;;;;5095503;28;20082;-89
2021/07/13 11:16:50;;;;;;;8.38;7.35;;;;;;;;;;5099412;28;20032;-88
2021/07/13 11:19:32;;;;;;;8.70;7.88;;;;;;;;;;5095839;28;20024;-87
2021/07/13 11:21:58;;;;;;;;;;;;;;;;;;5098897;28;20020;-87
2021/07/13 11:24:24;;;;;;;9.27;7.75;;;;;;;;;;5116850;27;20328;-88
2021/07/13 11:26:52;;;;;;;10.50;6.70;;;;;;;;;;5116623;28;20042;-89
2021/07/13 11:29:28;;;;;;;6.40;4.43;;;;;;;;;;5121709;28;20445;-87
2021/07/13 11:32:03;;;;;;;9.70;7.90;;;;;;;;;;5112957;28;20047;-91
2021/07/13 11:34:42;;;;;;;7.25;5.13;;;;;;;;;;5119500;28;20020;-91
2021/07/13 11:37:08;;;;;;;7.70;6.60;;;;;;;;;;5116439;27;20015;-90
2021/07/13 11:39:39;;;;;;;10.15;7.15;;;;;;;;;;5121438;27;20118;-91
2021/07/13 11:42:08;;;;;;;7.90;6.00;;;;;;;;;;5123405;27;20027;-91
2021/07/13 11:44:34;;;;;;;;;;;;;;;;;;5119586;27;20020;-90
2021/07/13 11:47:01;;;;;;;7.07;5.22;;;;;;;;;;5097637;28;19916;-88
2021/07/13 11:49:32;;;;;;;8.45;6.03;;;;;;;;;;5095424;28;20095;-90
2021/07/13 11:52:09;;;;;;;8.10;6.10;;;;;;;;;;5093902;28;20020;-87
2021/07/13 11:54:37;;;;;;;9.02;6.65;;;;;;;;;;5094764;28;20027;-91
2021/07/13 11:57:07;;;;;;;7.65;4.47;;;;;;;;;;5094410;28;20433;-91
2021/07/13 11:59:44;;;;;;;8.55;7.70;;;;;;;;;;5095057;28;20020;-91
2021/07/13 12:02:13;;;;;;;8.93;4.72;;;;;;;;;;5094496;28;20028;-88
2021/07/13 12:04:49;;;;;;;5.95;3.85;;;;;;;;;;5106503;27;20027;-88
2021/07/13 12:07:19;;;;;;;8.02;6.82;;;;;;;;;;5125249;27;20044;-89
2021/07/13 12:10:09;;;;;;;8.30;4.55;;;;;;;;;;5130577;28;20040;-89
2021/07/13 12:12:38;;;;;;;6.25;4.05;;;;;;;;;;5130696;28;20028;-90
2021/07/13 12:15:09;;;;;;;7.45;4.45;;;;;;;;;;5088094;28;20123;-87
2021/07/13 12:17:39;;;;;;;10.00;6.43;;;;;;;;;;5105852;28;20062;-85
2021/07/13 12:20:06;;;;;;;8.75;6.72;;;;;;;;;;5120013;28;20054;-87
2021/07/13 12:22:31;;;;;;;11.10;6.45;;;;;;;;;;5116750;28;20026;-87
2021/07/13 12:25:05;;;;;;;11.10;6.93;;;;;;;;;;5117821;28;20038;-88
2021/07/13 12:27:34;;;;;;;12.75;6.78;;;;;;;;;;5123377;27;20027;-88
2021/07/13 12:30:08;;;;;;;8.98;5.90;;;;;;;;;;5127627;27;20203;-88
2021/07/13 12:32:37;;;;;;;10.63;5.30;;;;;;;;;;5106625;27;20068;-90
2021/07/13 12:35:09;;;;;;;;;;;;;;;;;;5101533;28;20083;-88
2021/07/13 12:37:41;;;;;;;8.20;6.63;;;;;;;;;;5101821;28;19912;-91
2021/07/13 12:40:21;;;;;;;;;;;;;;;;;;;;;
2021/07/13 12:42:50;;;;;;;10.10;6.55;;;;;;;;;;5112472;28;20027;-94
2021/07/13 12:45:24;;;;;;;7.38;4.10;;;;;;;;;;5105288;28;20115;-89
2021/07/13 12:47:55;;;;;;;10.73;7.28;;;;;;;;;;5115442;28;20073;-89
2021/07/13 12:50:31;;;;;;;7.90;6.05;;;;;;;;;;5114367;28;20028;-87
2021/07/13 12:53:01;;;;;;;10.93;4.63;;;;;;;;;;5106085;27;20425;-89
2021/07/13 12:55:33;;;;;;;6.47;3.60;;;;;;;;;;5106580;28;20024;-87
2021/07/13 12:58:19;;;;;;;10.70;6.95;;;;;;;;;;5119217;27;20028;-88
2021/07/13 13:00:56;;;;;;;8.43;4.55;;;;;;;;;;5115619;27;20032;-89
2021/07/13 13:03:24;;;;;;;10.88;7.63;;;;;;;;;;5115151;28;20036;-91
2021/07/13 13:05:55;;;;;;;8.23;7.20;;;;;;;;;;5103648;28;20051;-88
2021/07/13 13:08:44;;;;;;;10.98;5.13;;;;;;;;;;5095079;28;20494;-88
2021/07/13 13:11:22;;;;;;;13.35;8.82;;;;;;;;;;5093759;28;20034;-89
2021/07/13 13:13:47;;;;;;;8.43;7.15;;;;;;;;;;5092299;28;20031;-87
2021/07/13 13:16:31;;;;;;;11.43;8.43;;;;;;;;;;5090291;28;20024;-90
2021/07/13 13:18:59;;;;;;;9.02;7.32;;;;;;;;;;5092975;28;20028;-86
2021/07/13 13:21:27;;;;;;;9.23;5.07;;;;;;;;;;5095904;28;20073;-89
2021/07/13 13:24:05;;;;;;;8.05;6.82;;;;;;;;;;5092300;28;20486;-92
2021/07/13 13:26:33;;;;;;;8.68;4.93;;;;;;;;;;5098541;28;20032;-89
2021/07/13 13:32:22;;;;;;;6.35;3.58;;;;;;;;;;5104437;28;20034;-87
2021/07/13 13:34:48;;;;;;;9.57;5.07;;;;;;;;;;5129333;27;20039;-86
2021/07/13 13:37:14;;;;;;;7.15;4.65;;;;;;;;;;5137386;27;20015;-86
2021/07/13 13:39:40;;;;;;;10.93;7.18;;;;;;;;;;5116726;27;20107;-86
2021/07/13 13:42:06;;;;;;;6.57;4.63;;;;;;;;;;5119702;27;20024;-88
2021/07/13 13:44:33;;;;;;;7.85;4.80;;;;;;;;;;5127538;27;20595;-87
2021/07/13 13:47:00;;;;;;;6.82;4.38;;;;;;;;;;5123884;28;20039;-86
2021/07/13 13:49:25;;;;;;;8.65;5.03;;;;;;;;;;5124133;28;20023;-85
2021/07/13 13:51:52;;;;;;;5.25;3.85;;;;;;;;;;5128527;28;20031;-85
2021/07/13 13:54:17;;;;;;;8.30;6.68;;;;;;;;;;5121838;28;20031;-86
2021/07/13 13:56:43;;;;;;;8.77;6.97;;;;;;;;;;5120201;28;20016;-87
2021/07/13 13:59:08;;;;;;;6.95;4.22;;;;;;;;;;5115982;28;20428;-87
2021/07/13 14:01:34;;;;;;;7.45;6.75;;;;;;;;;;5117444;28;20047;-85
2021/07/13 14:04:00;;;;;;;9.15;7.00;;;;;;;;;;5119203;28;20088;-85
2021/07/13 14:06:34;;;;;;;8.43;7.15;;;;;;;;;;5123061;28;20039;-86
2021/07/13 14:09:05;;;;;;;7.50;6.47;;;;;;;;;;5120163;28;20091;-83
2021/07/13 14:11:31;;;;;;;8.15;6.95;;;;;;;;;;5120393;28;20027;-85
2021/07/13 14:13:56;;;;;;;6.78;4.78;;;;;;;;;;5118580;28;20107;-85
2021/07/13 14:16:22;;;;;;;8.88;7.40;;;;;;;;;;5117576;28;20027;-86
2021/07/13 14:18:47;;;;;;;8.13;3.85;;;;;;;;;;5116181;28;20037;-86
2021/07/13 14:21:13;;;;;;;7.65;5.97;;;;;;;;;;5115525;28;20030;-84
2021/07/13 14:23:39;;;;;;;8.45;3.83;;;;;;;;;;5115864;28;20024;-86
2021/07/13 14:26:05;;;;;;;10.75;4.30;;;;;;;;;;5116420;28;20118;-84
2021/07/13 14:28:31;;;;;;;9.77;4.68;;;;;;;;;;5116244;28;20069;-85
2021/07/13 14:30:56;;;;;;;10.65;5.63;;;;;;;;;;5117795;28;20016;-86
2021/07/13 14:33:26;;;;;;;7.75;4.93;;;;;;;;;;5119123;28;20035;-84
2021/07/13 14:35:53;;;;;;;9.18;4.50;;;;;;;;;;5118925;28;20026;-84
2021/07/13 14:38:18;;;;;;;10.98;8.48;;;;;;;;;;5118680;28;20072;-85
2021/07/13 14:40:44;;;;;;;10.93;7.93;;;;;;;;;;5117713;28;20027;-84
2021/07/13 14:43:12;;;;;;;9.52;4.72;;;;;;;;;;5118032;28;20019;-84
2021/07/13 14:45:38;;;;;;;9.77;4.72;;;;;;;;;;5119361;28;20537;-86
2021/07/13 14:48:04;;;;;;;10.07;8.10;;;;;;;;;;5119825;28;20020;-84
2021/07/13 14:50:29;;;;;;;9.05;4.55;;;;;;;;;;5114390;28;20020;-84
2021/07/13 14:52:55;;;;;;;11.25;5.47;;;;;;;;;;5119705;28;20107;-86
2021/07/13 14:55:21;;;;;;;8.13;4.85;;;;;;;;;;5119963;28;20467;-83
2021/07/13 14:57:46;;;;;;;8.65;5.13;;;;;;;;;;5119156;28;20528;-85
2021/07/13 15:00:14;;;;;;;10.80;6.13;;;;;;;;;;5120143;28;20016;-83
2021/07/13 15:02:42;;;;;;;8.50;5.15;;;;;;;;;;5119459;28;20028;-84
2021/07/13 15:05:08;;;;;;;10.65;5.22;;;;;;;;;;5120976;28;20031;-84
2021/07/13 15:07:34;;;;;;;7.57;4.85;;;;;;;;;;5120877;28;20042;-83
2021/07/13 15:10:02;;;;;;;12.65;8.43;;;;;;;;;;5122299;28;20020;-83
2021/07/13 15:12:27;;;;;;;14.13;4.68;;;;;;;;;;5121114;28;20034;-83
2021/07/13 15:14:53;;;;;;;7.85;4.70;;;;;;;;;;5122596;28;20027;-82
2021/07/13 15:17:18;;;;;;;10.27;4.80;;;;;;;;;;5122910;28;20027;-83